Time;durP1;ratioP1;P1;durP2;ratioP2;P2;SDS_P1;SDS_P2;PMS_P1;PMS_P2;Temp;Humidity;BMP_temperature;BMP_pressure;BME280_temperature;BME280_humidity;BME280_pressure;Samples;Min_cycle;Max_cycle;Signal;HPM_P1;HPM_P2
2022/02/13 00:00:30;;;;;;;;;;;;;;;17.54;49.54;100280.75;2064484;28;19923;-44
2022/02/13 00:01:31;;;;;;;;;;;;;;;17.56;49.49;100281.50;2066534;28;19921;-45
2022/02/13 00:02:31;;;;;;;;;;;;;;;17.58;49.50;100279.47;2065604;28;19990;-47
2022/02/13 00:03:32;;;;;;;;;;;;;;;17.58;49.46;100284.91;2063744;28;20619;-48
2022/02/13 00:04:32;;;;;;;;;;;;;;;17.58;49.67;100276.75;2065797;28;20020;-44
2022/02/13 00:05:33;;;;;;;;;;;;;;;17.60;49.55;100281.22;2066234;28;19964;-44
2022/02/13 00:06:33;;;;;;;;;;;;;;;17.62;49.54;100280.06;2063573;28;20123;-43
2022/02/13 00:07:34;;;;;;;;;;;;;;;17.60;49.04;100276.63;2067050;28;19909;-44
2022/02/13 00:08:34;;;;;;;;;;;;;;;17.54;49.40;100271.69;2065341;28;19925;-44
2022/02/13 00:09:37;;;;;;;;;;;;;;;17.53;49.29;100273.56;2065426;28;19929;-48
2022/02/13 00:10:37;;;;;;;;;;;;;;;17.53;49.48;100279.00;2058077;28;19914;-45
2022/02/13 00:11:37;;;;;;;;;;;;;;;17.51;49.20;100271.97;2054893;28;19993;-43
2022/02/13 00:12:38;;;;;;;;;;;;;;;17.51;49.30;100272.84;2068972;28;20531;-44
2022/02/13 00:13:38;;;;;;;;;;;;;;;17.51;49.06;100274.69;2063348;28;19945;-45
2022/02/13 00:14:39;;;;;;;;;;;;;;;17.51;49.05;100272.84;2065309;28;20377;-46
2022/02/13 00:15:39;;;;;;;;;;;;;;;17.51;49.06;100275.56;2059872;28;20443;-46
2022/02/13 00:16:40;;;;;;;;;;;;;;;17.53;49.06;100269.97;2053501;28;20438;-47
2022/02/13 00:17:40;;;;;;;;;;;;;;;17.55;48.93;100277.03;2063805;28;19924;-44
2022/02/13 00:18:40;;;;;;;;;;;;;;;17.56;49.02;100276.03;2054098;28;19931;-45
2022/02/13 00:19:43;;;;;;;;;;;;;;;17.55;48.91;100274.28;2051696;28;20422;-45
2022/02/13 00:20:44;;;;;;;;;;;;;;;17.57;48.88;100279.63;2065571;28;19979;-46
2022/02/13 00:21:44;;;;;;;;;;;;;;;17.59;48.95;100280.34;2064233;28;19921;-45
2022/02/13 00:22:44;;;;;;;;;;;;;;;17.59;49.01;100280.34;2058867;28;19917;-45
2022/02/13 00:23:45;;;;;;;;;;;;;;;17.57;49.00;100280.47;2055718;28;19961;-45
2022/02/13 00:24:45;;;;;;;;;;;;;;;17.60;48.96;100281.22;2064429;28;19937;-46
2022/02/13 00:25:46;;;;;;;;;;;;;;;17.61;48.89;100277.47;2056186;28;20461;-45
2022/02/13 00:26:46;;;;;;;;;;;;;;;17.61;48.87;100275.59;2058792;28;20042;-46
2022/02/13 00:27:47;;;;;;;;;;;;;;;17.61;48.85;100277.47;2063418;28;19967;-46
2022/02/13 00:28:48;;;;;;;;;;;;;;;17.63;48.68;100275.47;2067981;28;19924;-46
2022/02/13 00:29:48;;;;;;;;;;;;;;;17.64;48.89;100282.66;2062571;28;19918;-45
2022/02/13 00:30:48;;;;;;;;;;;;;;;17.64;48.79;100282.66;2066161;28;19924;-46
2022/02/13 00:31:49;;;;;;;;;;;;;;;17.66;48.54;100277.94;2066302;28;20437;-46
2022/02/13 00:32:51;;;;;;;;;;;;;;;17.67;48.55;100282.41;2068471;28;20375;-45
2022/02/13 00:33:51;;;;;;;;;;;;;;;17.69;48.58;100277.69;2061178;28;19924;-46
2022/02/13 00:34:52;;;;;;;;;;;;;;;17.70;48.79;100271.22;2066215;28;20530;-46
2022/02/13 00:35:52;;;;;;;;;;;;;;;17.73;48.62;100276.38;2065543;28;19921;-45
2022/02/13 00:36:52;;;;;;;;;;;;;;;17.74;48.61;100267.22;2064590;28;20092;-45
2022/02/13 00:37:53;;;;;;;;;;;;;;;17.77;48.63;100266.94;2066935;28;19913;-47
2022/02/13 00:38:53;;;;;;;;;;;;;;;17.81;48.59;100264.81;2064865;28;19921;-46
2022/02/13 00:39:54;;;;;;;;;;;;;;;17.82;48.60;100263.84;2066014;28;20221;-45
2022/02/13 00:40:54;;;;;;;;;;;;;;;17.85;48.53;100264.41;2066494;28;19917;-47
2022/02/13 00:41:55;;;;;;;;;;;;;;;17.89;48.37;100263.16;2063253;28;20645;-46
2022/02/13 00:42:55;;;;;;;;;;;;;;;17.90;48.48;100262.13;2058239;28;19922;-47
2022/02/13 00:43:56;;;;;;;;;;;;;;;17.92;48.29;100265.59;2056419;28;19924;-45
2022/02/13 00:44:56;;;;;;;;;;;;;;;17.94;48.21;100269.06;2063635;28;19921;-46
2022/02/13 00:45:56;;;;;;;;;;;;;;;17.96;48.03;100261.59;2067335;28;20386;-47
2022/02/13 00:46:57;;;;;;;;;;;;;;;18.01;48.32;100263.91;2065486;28;20425;-47
2022/02/13 00:47:57;;;;;;;;;;;;;;;18.04;48.03;100263.63;2068627;28;19924;-45
2022/02/13 00:48:59;;;;;;;;;;;;;;;18.06;48.14;100252.59;2065429;28;20392;-46
2022/02/13 00:49:59;;;;;;;;;;;;;;;18.10;48.02;100251.28;2064637;28;20276;-46
2022/02/13 00:51:00;;;;;;;;;;;;;;;18.11;48.06;100253.03;2065422;28;20015;-48
2022/02/13 00:52:00;;;;;;;;;;;;;;;18.15;47.77;100257.19;2066521;28;20625;-49
2022/02/13 00:53:00;;;;;;;;;;;;;;;18.17;47.80;100252.44;2065718;28;20360;-46
2022/02/13 00:54:01;;;;;;;;;;;;;;;18.20;47.84;100252.16;2063816;28;19925;-46
2022/02/13 00:55:01;;;;;;;;;;;;;;;18.22;47.49;100252.88;2063890;28;19920;-47
2022/02/13 00:56:02;;;;;;;;;;;;;;;18.24;47.68;100250.88;2068096;28;20490;-46
2022/02/13 00:57:02;;;;;;;;;;;;;;;18.27;47.82;100247.00;2066404;28;19921;-46
2022/02/13 00:58:03;;;;;;;;;;;;;;;18.27;47.66;100242.41;2067485;28;19917;-46
2022/02/13 00:59:03;;;;;;;;;;;;;;;18.31;47.56;100237.56;2064067;28;19921;-46
2022/02/13 01:00:04;;;;;;;;;;;;;;;18.35;47.37;100241.75;2064778;28;20287;-45
2022/02/13 01:01:04;;;;;;;;;;;;;;;18.38;47.46;100238.72;2065953;28;19917;-46
2022/02/13 01:02:05;;;;;;;;;;;;;;;18.40;47.27;100232.13;2064826;28;20431;-45
2022/02/13 01:03:06;;;;;;;;;;;;;;;18.43;47.16;100242.72;2066277;28;19913;-47
2022/02/13 01:04:06;;;;;;;;;;;;;;;18.46;47.22;100235.28;2061530;28;20315;-46
2022/02/13 01:05:06;;;;;;;;;;;;;;;18.49;46.92;100240.44;2063453;28;19957;-48
2022/02/13 01:06:07;;;;;;;;;;;;;;;18.51;47.08;100232.97;2066116;28;19979;-48
2022/02/13 01:07:07;;;;;;;;;;;;;;;18.51;47.08;100238.44;2066355;28;19924;-46
2022/02/13 01:08:08;;;;;;;;;;;;;;;18.54;47.06;100239.00;2067267;28;19921;-46
2022/02/13 01:09:09;;;;;;;;;;;;;;;18.56;47.02;100231.53;2064489;28;20366;-45
2022/02/13 01:10:10;;;;;;;;;;;;;;;18.57;46.92;100230.53;2063613;28;19913;-47
2022/02/13 01:11:11;;;;;;;;;;;;;;;18.60;46.78;100229.41;2058931;28;20016;-46
2022/02/13 01:12:11;;;;;;;;;;;;;;;18.61;46.69;100231.97;2055556;28;19918;-46
2022/02/13 01:13:11;;;;;;;;;;;;;;;18.63;46.77;100229.09;2061152;28;20244;-46
2022/02/13 01:14:12;;;;;;;;;;;;;;;18.65;46.78;100240.75;2066550;28;19921;-46
2022/02/13 01:15:12;;;;;;;;;;;;;;;18.66;46.77;100237.00;2066341;28;19921;-46
2022/02/13 01:16:13;;;;;;;;;;;;;;;18.61;46.73;100236.56;2063994;28;19925;-45
2022/02/13 01:17:13;;;;;;;;;;;;;;;18.53;46.89;100230.97;2066266;28;19921;-45
2022/02/13 01:18:13;;;;;;;;;;;;;;;18.43;46.77;100230.97;2064836;28;19932;-45
2022/02/13 01:19:14;;;;;;;;;;;;;;;18.36;46.83;100230.66;2066548;28;19924;-45
2022/02/13 01:20:14;;;;;;;;;;;;;;;18.31;47.06;100226.63;2065653;28;20621;-44
2022/02/13 01:21:14;;;;;;;;;;;;;;;18.26;47.21;100227.06;2065087;28;20305;-45
2022/02/13 01:22:15;;;;;;;;;;;;;;;18.22;47.15;100225.59;2060866;28;19991;-45
2022/02/13 01:23:15;;;;;;;;;;;;;;;18.21;47.20;100222.03;2063259;28;19952;-44
2022/02/13 01:24:15;;;;;;;;;;;;;;;18.18;47.45;100222.31;2065701;28;19925;-45
2022/02/13 01:25:16;;;;;;;;;;;;;;;18.17;47.49;100226.03;2066538;28;19928;-46
2022/02/13 01:26:19;;;;;;;;;;;;;;;18.17;47.36;100230.63;2065628;28;19921;-46
2022/02/13 01:27:19;;;;;;;;;;;;;;;18.15;47.59;100227.16;2065551;28;20286;-46
2022/02/13 01:28:20;;;;;;;;;;;;;;;18.13;47.55;100230.06;2067111;28;19925;-47
2022/02/13 01:29:20;;;;;;;;;;;;;;;18.13;47.58;100226.47;2066359;28;20039;-47
2022/02/13 01:30:21;;;;;;;;;;;;;;;18.12;47.63;100238.38;2065987;28;20222;-48
2022/02/13 01:31:21;;;;;;;;;;;;;;;18.11;47.56;100233.94;2068352;28;19990;-47
2022/02/13 01:32:21;;;;;;;;;;;;;;;18.10;47.73;100234.91;2064486;28;20012;-45
2022/02/13 01:33:23;;;;;;;;;;;;;;;18.09;47.74;100227.75;2065901;28;19921;-46
2022/02/13 01:34:24;;;;;;;;;;;;;;;18.08;47.66;100229.63;2067885;28;19925;-45
2022/02/13 01:35:24;;;;;;;;;;;;;;;18.06;47.74;100231.63;2064842;28;19921;-45
2022/02/13 01:36:25;;;;;;;;;;;;;;;18.06;47.68;100228.03;2066951;28;19999;-44
2022/02/13 01:37:26;;;;;;;;;;;;;;;18.05;47.92;100227.16;2064795;28;20251;-44
2022/02/13 01:38:26;;;;;;;;;;;;;;;18.05;47.76;100231.75;2066628;28;19921;-45
2022/02/13 01:39:27;;;;;;;;;;;;;;;18.04;48.09;100224.59;2070806;28;19976;-45
2022/02/13 01:40:27;;;;;;;;;;;;;;;18.04;48.12;100227.31;2065471;28;20671;-45
2022/02/13 01:41:27;;;;;;;;;;;;;;;18.03;47.94;100225.56;2068449;28;19962;-45
2022/02/13 01:42:28;;;;;;;;;;;;;;;18.03;48.08;100228.28;2064413;28;19917;-45
2022/02/13 01:43:28;;;;;;;;;;;;;;;18.02;47.95;100232.03;2065290;28;19925;-44
2022/02/13 01:44:32;;;;;;;;;;;;;;;18.01;48.20;100225.72;2067836;28;19988;-46
2022/02/13 01:45:32;;;;;;;;;;;;;;;18.03;47.96;100222.84;2064764;28;20474;-45
2022/02/13 01:46:32;;;;;;;;;;;;;;;18.00;48.03;100224.84;2068090;28;19932;-46
2022/02/13 01:47:34;;;;;;;;;;;;;;;18.00;47.92;100224.84;2067177;28;20048;-45
2022/02/13 01:48:34;;;;;;;;;;;;;;;18.02;48.02;100221.13;2066375;28;19924;-46
2022/02/13 01:49:35;;;;;;;;;;;;;;;18.00;48.09;100219.38;2068489;28;19921;-45
2022/02/13 01:50:36;;;;;;;;;;;;;;;17.99;48.13;100223.13;2061522;28;20267;-45
2022/02/13 01:51:37;;;;;;;;;;;;;;;17.99;48.12;100217.66;2066038;28;19920;-45
2022/02/13 01:52:38;;;;;;;;;;;;;;;18.00;47.98;100219.38;2064782;28;19916;-46
2022/02/13 01:53:39;;;;;;;;;;;;;;;17.98;48.11;100220.53;2064854;28;19913;-48
2022/02/13 01:54:39;;;;;;;;;;;;;;;17.99;48.31;100223.13;2067677;28;19925;-45
2022/02/13 01:55:39;;;;;;;;;;;;;;;17.99;48.23;100214.94;2065370;28;20099;-45
2022/02/13 01:56:40;;;;;;;;;;;;;;;17.99;48.15;100212.22;2067835;28;19913;-45
2022/02/13 01:57:40;;;;;;;;;;;;;;;17.99;48.14;100205.91;2063621;28;20346;-48
2022/02/13 01:58:40;;;;;;;;;;;;;;;17.97;48.33;100207.91;2057831;28;19968;-45
2022/02/13 01:59:41;;;;;;;;;;;;;;;17.97;48.14;100208.75;2057902;28;19929;-46
2022/02/13 02:00:42;;;;;;;;;;;;;;;17.97;48.33;100206.03;2067411;28;20697;-46
2022/02/13 02:01:42;;;;;;;;;;;;;;;17.97;48.00;100200.56;2066226;28;20027;-45
2022/02/13 02:02:43;;;;;;;;;;;;;;;17.98;48.35;100205.03;2067764;28;19921;-45
2022/02/13 02:03:45;;;;;;;;;;;;;;;17.97;48.33;100202.44;2065482;28;20595;-44
2022/02/13 02:04:47;;;;;;;;;;;;;;;17.96;48.24;100198.88;2067457;28;19926;-45
2022/02/13 02:05:47;;;;;;;;;;;;;;;17.97;48.14;100195.13;2064716;28;19932;-46
2022/02/13 02:06:48;;;;;;;;;;;;;;;17.96;48.04;100200.75;2064273;28;19917;-45
2022/02/13 02:07:48;;;;;;;;;;;;;;;17.96;48.26;100201.59;2066630;28;19921;-45
2022/02/13 02:08:49;;;;;;;;;;;;;;;17.97;48.28;100197.00;2065625;28;19979;-46
2022/02/13 02:09:53;;;;;;;;;;;;;;;17.96;48.25;100196.13;2066637;28;19928;-45
2022/02/13 02:10:54;;;;;;;;;;;;;;;17.96;48.27;100200.75;2066564;28;19948;-47
2022/02/13 02:11:55;;;;;;;;;;;;;;;17.95;48.18;100190.81;2058266;28;19921;-47
2022/02/13 02:12:56;;;;;;;;;;;;;;;17.95;48.45;100202.56;2058073;28;19928;-46
2022/02/13 02:13:56;;;;;;;;;;;;;;;17.94;48.34;100189.09;2061518;28;19924;-45
2022/02/13 02:14:57;;;;;;;;;;;;;;;17.94;48.54;100192.69;2066347;28;19917;-45
2022/02/13 02:15:57;;;;;;;;;;;;;;;17.94;48.47;100187.22;2067711;28;20424;-46
2022/02/13 02:16:57;;;;;;;;;;;;;;;17.95;48.37;100194.41;2066175;28;19921;-46
2022/02/13 02:17:58;;;;;;;;;;;;;;;17.94;48.49;100187.22;2067428;28;19917;-45
2022/02/13 02:18:58;;;;;;;;;;;;;;;17.94;48.33;100187.22;2062864;28;19921;-45
2022/02/13 02:19:59;;;;;;;;;;;;;;;17.94;48.58;100189.97;2065397;28;20218;-46
2022/02/13 02:21:03;;;;;;;;;;;;;;;17.95;48.32;100188.09;2064166;28;19953;-47
2022/02/13 02:22:07;;;;;;;;;;;;;;;17.95;48.55;100191.66;2066685;28;19917;-46
2022/02/13 02:23:08;;;;;;;;;;;;;;;17.94;48.33;100184.50;2064205;28;19943;-47
2022/02/13 02:24:11;;;;;;;;;;;;;;;17.94;48.25;100189.97;2066639;28;19917;-48
2022/02/13 02:25:12;;;;;;;;;;;;;;;17.94;48.39;100184.50;2064060;28;19960;-46
2022/02/13 02:26:17;;;;;;;;;;;;;;;17.95;48.44;100177.19;2059994;28;19924;-47
2022/02/13 02:27:17;;;;;;;;;;;;;;;17.95;48.45;100182.63;2064211;28;19925;-49
2022/02/13 02:28:17;;;;;;;;;;;;;;;17.95;48.32;100172.56;2066988;28;19921;-49
2022/02/13 02:29:19;;;;;;;;;;;;;;;17.96;48.57;100176.19;2056046;28;19918;-47
2022/02/13 02:30:19;;;;;;;;;;;;;;;17.97;48.49;100173.31;2057661;28;20237;-47
2022/02/13 02:31:20;;;;;;;;;;;;;;;17.98;48.36;100168.69;2066072;28;20034;-46
2022/02/13 02:32:20;;;;;;;;;;;;;;;17.97;48.44;100164.25;2066753;28;19924;-47
2022/02/13 02:33:20;;;;;;;;;;;;;;;17.97;48.47;100167.84;2063667;28;20742;-51
2022/02/13 02:34:21;;;;;;;;;;;;;;;17.97;48.40;100158.81;2066406;28;19925;-45
2022/02/13 02:35:21;;;;;;;;;;;;;;;17.96;48.25;100163.41;2064181;28;20276;-46
2022/02/13 02:36:21;;;;;;;;;;;;;;;17.98;48.47;100166.88;2060547;28;19925;-47
2022/02/13 02:37:24;;;;;;;;;;;;;;;17.97;48.30;100156.94;2072111;28;19953;-47
2022/02/13 02:38:24;;;;;;;;;;;;;;;17.98;48.48;100158.69;2063860;28;20313;-50
2022/02/13 02:39:25;;;;;;;;;;;;;;;17.97;48.43;100159.66;2066807;28;19924;-47
2022/02/13 02:40:25;;;;;;;;;;;;;;;17.98;48.30;100161.41;2063701;28;19928;-47
2022/02/13 02:41:26;;;;;;;;;;;;;;;17.96;48.32;100152.50;2066535;28;19921;-46
2022/02/13 02:42:26;;;;;;;;;;;;;;;17.97;48.40;100146.03;2065220;28;20319;-48
2022/02/13 02:43:26;;;;;;;;;;;;;;;17.96;48.38;100144.31;2066434;28;20336;-47
2022/02/13 02:44:27;;;;;;;;;;;;;;;17.95;48.34;100139.84;2065462;28;19920;-49
2022/02/13 02:45:27;;;;;;;;;;;;;;;17.94;48.37;100148.19;2064457;28;19909;-47
2022/02/13 02:46:27;;;;;;;;;;;;;;;17.94;48.41;100143.59;2066528;28;20224;-46
2022/02/13 02:47:28;;;;;;;;;;;;;;;17.95;48.57;100134.41;2060717;28;20032;-48
2022/02/13 02:48:28;;;;;;;;;;;;;;;17.94;48.45;100137.28;2064919;28;20247;-49
2022/02/13 02:49:28;;;;;;;;;;;;;;;17.93;48.54;100136.44;2065458;28;20026;-46
2022/02/13 02:50:29;;;;;;;;;;;;;;;17.92;48.49;100131.97;2064588;28;19931;-46
2022/02/13 02:51:29;;;;;;;;;;;;;;;17.92;48.49;100133.84;2064178;28;19966;-47
2022/02/13 02:52:29;;;;;;;;;;;;;;;17.92;48.70;100131.09;2067754;28;20385;-45
2022/02/13 02:53:30;;;;;;;;;;;;;;;17.91;48.53;100127.53;2065868;28;19921;-44
2022/02/13 02:54:30;;;;;;;;;;;;;;;17.90;48.67;100125.78;2067613;28;19936;-45
2022/02/13 02:55:30;;;;;;;;;;;;;;;17.89;48.73;100117.75;2063856;28;19925;-45
2022/02/13 02:56:31;;;;;;;;;;;;;;;17.89;48.69;100110.44;2065736;28;19924;-47
2022/02/13 02:57:31;;;;;;;;;;;;;;;17.88;48.75;100114.16;2067508;28;19925;-45
2022/02/13 02:58:32;;;;;;;;;;;;;;;17.89;48.71;100112.31;2065193;28;19913;-46
2022/02/13 02:59:32;;;;;;;;;;;;;;;17.87;48.76;100109.72;2066892;28;20220;-45
2022/02/13 03:00:33;;;;;;;;;;;;;;;17.87;48.73;100104.25;2066500;28;20324;-46
2022/02/13 03:01:33;;;;;;;;;;;;;;;17.88;48.61;100107.84;2064695;28;19956;-45
2022/02/13 03:02:34;;;;;;;;;;;;;;;17.89;48.65;100113.16;2067358;28;19929;-45
2022/02/13 03:03:35;;;;;;;;;;;;;;;17.88;48.77;100102.38;2063707;28;19968;-45
2022/02/13 03:04:35;;;;;;;;;;;;;;;17.88;48.74;100108.69;2065086;28;20329;-45
2022/02/13 03:05:36;;;;;;;;;;;;;;;17.88;48.69;100102.38;2067454;28;19943;-48
2022/02/13 03:06:38;;;;;;;;;;;;;;;17.88;48.74;100100.50;2061389;28;20283;-46
2022/02/13 03:07:39;;;;;;;;;;;;;;;17.87;48.76;100087.88;2066239;28;20059;-46
2022/02/13 03:08:39;;;;;;;;;;;;;;;17.89;48.84;100095.94;2066653;28;20307;-46
2022/02/13 03:09:40;;;;;;;;;;;;;;;17.88;48.64;100089.59;2058398;28;19943;-47
2022/02/13 03:10:40;;;;;;;;;;;;;;;17.87;48.68;100087.88;2053839;28;19986;-47
2022/02/13 03:11:41;;;;;;;;;;;;;;;17.87;48.83;100079.72;2062386;28;19999;-47
2022/02/13 03:12:41;;;;;;;;;;;;;;;17.88;48.76;100078.69;2064724;28;19921;-47
2022/02/13 03:13:41;;;;;;;;;;;;;;;17.87;48.76;100071.53;2064890;28;20015;-46
2022/02/13 03:14:42;;;;;;;;;;;;;;;17.87;49.03;100071.53;2067218;28;19952;-46
2022/02/13 03:15:43;;;;;;;;;;;;;;;17.88;48.84;100061.47;2059365;28;19922;-46
2022/02/13 03:16:43;;;;;;;;;;;;;;;17.86;48.84;100064.38;2059220;28;20285;-46
2022/02/13 03:17:43;;;;;;;;;;;;;;;17.86;48.96;100055.31;2068866;28;19960;-46
2022/02/13 03:18:44;;;;;;;;;;;;;;;17.85;48.69;100056.31;2062922;28;19975;-47
2022/02/13 03:19:44;;;;;;;;;;;;;;;17.85;48.86;100049.00;2067381;28;19982;-47
2022/02/13 03:20:45;;;;;;;;;;;;;;;17.85;48.83;100045.41;2067800;28;20002;-47
2022/02/13 03:21:46;;;;;;;;;;;;;;;17.85;48.88;100043.53;2065657;28;19921;-47
2022/02/13 03:22:46;;;;;;;;;;;;;;;17.84;48.88;100044.56;2065233;28;19921;-46
2022/02/13 03:23:46;;;;;;;;;;;;;;;17.85;49.00;100045.41;2066647;28;19925;-47
2022/02/13 03:24:47;;;;;;;;;;;;;;;17.85;48.99;100050.88;2068784;28;20016;-47
2022/02/13 03:25:47;;;;;;;;;;;;;;;17.84;48.74;100044.56;2064815;28;19925;-48
2022/02/13 03:26:48;;;;;;;;;;;;;;;17.84;48.88;100041.81;2068283;28;20316;-48
2022/02/13 03:27:49;;;;;;;;;;;;;;;17.83;48.87;100044.69;2066056;28;19927;-47
2022/02/13 03:28:49;;;;;;;;;;;;;;;17.82;49.10;100040.25;2066071;28;20186;-48
2022/02/13 03:29:49;;;;;;;;;;;;;;;17.81;49.15;100042.13;2062945;28;19928;-46
2022/02/13 03:30:50;;;;;;;;;;;;;;;17.81;49.24;100049.41;2064876;28;20251;-47
2022/02/13 03:31:50;;;;;;;;;;;;;;;17.79;49.18;100053.13;2070041;28;20016;-46
2022/02/13 03:32:51;;;;;;;;;;;;;;;17.79;49.00;100053.13;2065643;28;19980;-45
2022/02/13 03:33:51;;;;;;;;;;;;;;;17.77;49.08;100051.53;2065628;28;19925;-48
2022/02/13 03:34:51;;;;;;;;;;;;;;;17.76;49.24;100050.69;2069398;28;19921;-47
2022/02/13 03:35:51;;;;;;;;;;;;;;;17.77;49.09;100059.72;2066179;28;20514;-47
2022/02/13 03:36:52;;;;;;;;;;;;;;;17.77;49.34;100055.13;2067587;28;19932;-46
2022/02/13 03:37:52;;;;;;;;;;;;;;;17.76;49.40;100057.97;2069293;28;19921;-46
2022/02/13 03:38:53;;;;;;;;;;;;;;;17.75;49.36;100059.00;2066473;28;20439;-47
2022/02/13 03:39:53;;;;;;;;;;;;;;;17.75;49.20;100061.72;2059168;28;20032;-47
2022/02/13 03:40:54;;;;;;;;;;;;;;;17.75;49.25;100064.47;2058256;28;20044;-45
2022/02/13 03:41:55;;;;;;;;;;;;;;;17.73;49.39;100064.59;2066776;28;19921;-48
2022/02/13 03:42:55;;;;;;;;;;;;;;;17.74;49.34;100063.59;2067925;28;19919;-46
2022/02/13 03:43:55;;;;;;;;;;;;;;;17.74;49.36;100065.47;2068348;28;19968;-45
2022/02/13 03:44:56;;;;;;;;;;;;;;;17.73;49.27;100063.72;2066818;28;20410;-46
2022/02/13 03:45:56;;;;;;;;;;;;;;;17.73;49.33;100064.59;2066442;28;19921;-46
2022/02/13 03:46:56;;;;;;;;;;;;;;;17.74;49.42;100073.66;2067716;28;20666;-47
2022/02/13 03:47:57;;;;;;;;;;;;;;;17.74;49.44;100068.19;2070718;28;19921;-46
2022/02/13 03:48:57;;;;;;;;;;;;;;;17.73;49.48;100069.19;2062473;28;20007;-45
2022/02/13 03:49:57;;;;;;;;;;;;;;;17.73;49.34;100069.19;2058766;28;19921;-49
2022/02/13 03:50:58;;;;;;;;;;;;;;;17.73;49.44;100064.59;2065725;28;19929;-48
2022/02/13 03:51:58;;;;;;;;;;;;;;;17.74;49.37;100065.47;2068423;28;19961;-46
2022/02/13 03:52:58;;;;;;;;;;;;;;;17.73;49.31;100063.72;2066648;28;19913;-46
2022/02/13 03:53:58;;;;;;;;;;;;;;;17.74;49.42;100065.47;2064925;28;19952;-49
2022/02/13 03:55:00;;;;;;;;;;;;;;;17.75;49.44;100067.19;2068077;28;20224;-47
2022/02/13 03:56:00;;;;;;;;;;;;;;;17.74;49.24;100063.59;2064685;28;20762;-46
2022/02/13 03:57:00;;;;;;;;;;;;;;;17.75;49.35;100064.47;2059779;28;19979;-46
2022/02/13 03:58:01;;;;;;;;;;;;;;;17.76;49.49;100063.44;2057890;28;20017;-47
2022/02/13 03:59:01;;;;;;;;;;;;;;;17.76;49.19;100061.59;2068902;28;19941;-48
2022/02/13 04:00:02;;;;;;;;;;;;;;;17.77;49.23;100062.44;2077925;28;20390;-46
2022/02/13 04:01:03;;;;;;;;;;;;;;;17.79;49.38;100063.19;2065209;28;19921;-48
2022/02/13 04:02:03;;;;;;;;;;;;;;;17.79;49.32;100064.03;2067789;28;19913;-46
2022/02/13 04:03:04;;;;;;;;;;;;;;;17.80;49.26;100064.91;2067780;28;20501;-47
2022/02/13 04:04:04;;;;;;;;;;;;;;;17.80;49.19;100064.91;2065872;28;19925;-47
2022/02/13 04:05:05;;;;;;;;;;;;;;;17.79;49.38;100064.03;2069271;28;19952;-48
2022/02/13 04:06:06;;;;;;;;;;;;;;;17.79;49.22;100064.03;2063536;28;20284;-46
2022/02/13 04:07:06;;;;;;;;;;;;;;;17.80;49.17;100062.19;2058049;28;19933;-47
2022/02/13 04:08:07;;;;;;;;;;;;;;;17.80;49.37;100059.47;2059606;28;19921;-46
2022/02/13 04:09:07;;;;;;;;;;;;;;;17.79;49.13;100057.72;2067250;28;20294;-50
2022/02/13 04:10:08;;;;;;;;;;;;;;;17.79;49.26;100052.28;2059767;28;19967;-50
2022/02/13 04:11:08;;;;;;;;;;;;;;;17.79;49.27;100057.72;2057565;28;20380;-49
2022/02/13 04:12:09;;;;;;;;;;;;;;;17.78;49.17;100051.41;2065918;28;19925;-45
2022/02/13 04:13:09;;;;;;;;;;;;;;;17.78;49.50;100055.97;2068005;28;19917;-45
2022/02/13 04:14:09;;;;;;;;;;;;;;;17.77;49.32;100057.00;2066074;28;19928;-46
2022/02/13 04:15:10;;;;;;;;;;;;;;;17.76;49.44;100055.25;2072015;28;19921;-48
2022/02/13 04:16:10;;;;;;;;;;;;;;;17.76;49.59;100044.34;2065362;28;19921;-46
2022/02/13 04:17:11;;;;;;;;;;;;;;;17.75;49.46;100057.13;2069281;28;20332;-45
2022/02/13 04:18:15;;;;;;;;;;;;;;;17.75;49.40;100050.81;2065970;28;19921;-46
2022/02/13 04:19:15;;;;;;;;;;;;;;;17.75;49.52;100057.13;2067501;28;20351;-45
2022/02/13 04:20:15;;;;;;;;;;;;;;;17.75;49.50;100050.81;2061202;28;19921;-46
2022/02/13 04:21:16;;;;;;;;;;;;;;;17.75;49.46;100045.38;2064899;28;20742;-46
2022/02/13 04:22:16;;;;;;;;;;;;;;;17.74;49.42;100041.78;2067566;28;20156;-45
2022/02/13 04:23:17;;;;;;;;;;;;;;;17.74;49.50;100044.50;2062409;28;20375;-45
2022/02/13 04:24:17;;;;;;;;;;;;;;;17.74;49.40;100046.38;2058877;28;19921;-46
2022/02/13 04:25:18;;;;;;;;;;;;;;;17.74;49.43;100049.13;2058047;28;19948;-46
2022/02/13 04:26:18;;;;;;;;;;;;;;;17.73;49.47;100047.38;2063130;28;20316;-44
2022/02/13 04:27:18;;;;;;;;;;;;;;;17.73;49.54;100042.78;2067030;28;20413;-46
2022/02/13 04:28:19;;;;;;;;;;;;;;;17.71;49.69;100039.34;2052444;28;19957;-46
2022/02/13 04:29:20;;;;;;;;;;;;;;;17.72;49.40;100045.66;2066341;28;19921;-48
2022/02/13 04:30:20;;;;;;;;;;;;;;;17.72;49.48;100040.22;2071106;28;19979;-46
2022/02/13 04:31:21;;;;;;;;;;;;;;;17.72;49.44;100040.22;2065737;28;19932;-45
2022/02/13 04:32:21;;;;;;;;;;;;;;;17.71;49.37;100038.47;2067178;28;20015;-45
2022/02/13 04:33:22;;;;;;;;;;;;;;;17.71;49.39;100043.91;2065215;28;19967;-45
2022/02/13 04:34:22;;;;;;;;;;;;;;;17.70;49.49;100042.22;2067403;28;19921;-45
2022/02/13 04:35:23;;;;;;;;;;;;;;;17.70;49.45;100042.22;2062290;28;19971;-45
2022/02/13 04:36:23;;;;;;;;;;;;;;;17.70;49.57;100042.22;2066717;28;20363;-45
2022/02/13 04:37:24;;;;;;;;;;;;;;;17.69;49.40;100037.78;2063215;28;19925;-45
2022/02/13 04:38:24;;;;;;;;;;;;;;;17.69;49.35;100035.06;2067498;28;19921;-47
2022/02/13 04:39:25;;;;;;;;;;;;;;;17.69;49.48;100035.06;2059663;28;19928;-46
2022/02/13 04:40:25;;;;;;;;;;;;;;;17.68;49.41;100039.63;2065940;28;20007;-46
2022/02/13 04:41:25;;;;;;;;;;;;;;;17.67;49.57;100037.06;2067287;28;19920;-45
2022/02/13 04:42:26;;;;;;;;;;;;;;;17.67;49.56;100037.06;2061397;28;20438;-47
2022/02/13 04:43:27;;;;;;;;;;;;;;;17.67;49.66;100037.06;2065909;28;20359;-46
2022/02/13 04:44:27;;;;;;;;;;;;;;;17.67;49.66;100031.59;2068063;28;19972;-46
2022/02/13 04:45:27;;;;;;;;;;;;;;;17.66;49.54;100041.63;2065297;28;20330;-49
2022/02/13 04:46:27;;;;;;;;;;;;;;;17.65;49.45;100042.63;2066940;28;19921;-46
2022/02/13 04:47:28;;;;;;;;;;;;;;;17.64;49.87;100042.75;2067393;28;19921;-45
2022/02/13 04:48:28;;;;;;;;;;;;;;;17.63;49.63;100046.50;2067669;28;20685;-46
2022/02/13 04:49:28;;;;;;;;;;;;;;;17.63;49.55;100035.59;2061455;28;19930;-47
2022/02/13 04:50:29;;;;;;;;;;;;;;;17.62;49.56;100028.44;2056124;28;19933;-46
2022/02/13 04:51:29;;;;;;;;;;;;;;;17.61;49.87;100034.88;2066948;28;20453;-47
2022/02/13 04:52:29;;;;;;;;;;;;;;;17.60;49.74;100023.13;2066798;28;19928;-45
2022/02/13 04:53:30;;;;;;;;;;;;;;;17.58;49.89;100028.69;2064012;28;19921;-44
2022/02/13 04:54:30;;;;;;;;;;;;;;;17.58;49.81;100023.25;2067885;28;19921;-45
2022/02/13 04:55:30;;;;;;;;;;;;;;;17.57;49.93;100016.09;2064930;28;20169;-45
2022/02/13 04:56:31;;;;;;;;;;;;;;;17.57;50.00;100017.97;2065164;28;19929;-44
2022/02/13 04:57:31;;;;;;;;;;;;;;;17.57;49.80;100021.53;2065031;28;19927;-45
2022/02/13 04:58:34;;;;;;;;;;;;;;;17.56;49.91;100016.22;2063733;28;20147;-44
2022/02/13 04:59:37;;;;;;;;;;;;;;;17.55;49.78;100018.09;2065428;28;19963;-47
2022/02/13 05:00:37;;;;;;;;;;;;;;;17.55;49.86;100009.06;2065262;28;19921;-44
2022/02/13 05:01:38;;;;;;;;;;;;;;;17.54;50.02;100016.38;2064383;28;19913;-45
2022/02/13 05:02:38;;;;;;;;;;;;;;;17.55;49.95;100017.25;2066580;28;20331;-44
2022/02/13 05:03:39;;;;;;;;;;;;;;;17.54;49.96;100010.03;2062689;28;20199;-46
2022/02/13 05:04:39;;;;;;;;;;;;;;;17.55;50.09;100011.78;2064851;28;20371;-43
2022/02/13 05:05:39;;;;;;;;;;;;;;;17.55;49.82;100004.47;2065634;28;19927;-45
2022/02/13 05:06:40;;;;;;;;;;;;;;;17.55;49.72;100009.06;2065108;28;20028;-44
2022/02/13 05:07:40;;;;;;;;;;;;;;;17.55;49.67;100007.19;2065038;28;19928;-44
2022/02/13 05:08:40;;;;;;;;;;;;;;;17.54;49.98;100000.03;2065177;28;19935;-44
2022/02/13 05:09:41;;;;;;;;;;;;;;;17.55;49.83;100000.88;2066896;28;20044;-44
2022/02/13 05:10:41;;;;;;;;;;;;;;;17.55;49.97;100001.75;2065700;28;19925;-44